createdAt,value
2022-07-29T00:04:18.259Z,19.88
2022-07-29T00:09:19.924Z,19.86
2022-07-29T00:14:21.368Z,19.82
2022-07-29T00:19:22.779Z,19.79
2022-07-29T00:24:24.712Z,19.65
2022-07-29T00:29:34.695Z,19.67
2022-07-29T00:34:54.775Z,19.73
2022-07-29T00:39:56.398Z,19.62
2022-07-29T00:44:57.784Z,19.70
2022-07-29T00:49:59.234Z,19.63
2022-07-29T00:55:04.943Z,19.65
2022-07-29T01:00:15.708Z,19.60
2022-07-29T01:05:22.463Z,19.66
2022-07-29T01:10:25.959Z,19.59
2022-07-29T01:15:27.717Z,19.50
2022-07-29T01:20:51.111Z,19.55
2022-07-29T01:25:58.119Z,19.45
2022-07-29T01:31:03.477Z,19.38
2022-07-29T01:36:14.078Z,19.35
2022-07-29T01:41:18.625Z,19.23
2022-07-29T01:46:32.829Z,19.21
2022-07-29T01:51:41.248Z,19.34
2022-07-29T01:56:45.996Z,19.23
2022-07-29T02:01:49.363Z,19.29
2022-07-29T02:06:53.824Z,19.25
2022-07-29T02:12:00.285Z,19.17
2022-07-29T02:17:02.985Z,19.12
2022-07-29T02:22:06.833Z,18.87
2022-07-29T02:27:10.400Z,19.08
2022-07-29T02:32:14.083Z,19.07
2022-07-29T02:37:17.676Z,18.99
2022-07-29T02:42:19.504Z,18.98
2022-07-29T02:47:41.791Z,18.95
2022-07-29T02:52:55.092Z,18.93
2022-07-29T02:58:14.309Z,18.92
2022-07-29T03:03:18.333Z,18.78
2022-07-29T03:08:20.115Z,18.85
2022-07-29T03:13:22.208Z,18.74
2022-07-29T03:18:24.213Z,18.67
2022-07-29T03:23:26.941Z,18.63
2022-07-29T03:28:28.359Z,18.64
2022-07-29T03:33:31.227Z,18.57
2022-07-29T03:38:35.834Z,18.34
2022-07-29T03:43:44.079Z,18.19
2022-07-29T03:48:57.245Z,18.26
2022-07-29T03:53:59.329Z,18.12
2022-07-29T03:59:03.127Z,18.12
2022-07-29T04:04:05.816Z,18.09
2022-07-29T04:09:07.536Z,18.03
2022-07-29T04:14:11.463Z,18.06
2022-07-29T04:19:12.985Z,17.93
2022-07-29T04:24:15.065Z,17.75
2022-07-29T04:29:16.705Z,17.50
2022-07-29T04:34:18.791Z,17.46
2022-07-29T04:39:23.064Z,17.23
2022-07-29T04:44:28.446Z,17.23
2022-07-29T04:49:30.301Z,17.14
2022-07-29T04:54:31.728Z,17.20
2022-07-29T04:59:33.189Z,17.31
2022-07-29T05:04:34.636Z,16.67
2022-07-29T05:09:36.094Z,16.64
2022-07-29T05:14:37.517Z,17.06
2022-07-29T05:19:39.609Z,16.40
2022-07-29T05:24:41.737Z,16.35
2022-07-29T05:29:45.827Z,16.45
2022-07-29T05:34:50.813Z,16.68
2022-07-29T05:39:57.310Z,16.59
2022-07-29T05:45:01.017Z,16.71
2022-07-29T05:50:02.494Z,16.75
2022-07-29T05:55:06.332Z,16.56
2022-07-29T06:00:08.641Z,16.66
2022-07-29T06:05:10.558Z,16.52
2022-07-29T06:10:17.828Z,16.47
2022-07-29T06:15:19.288Z,16.62
2022-07-29T06:20:20.758Z,16.70
2022-07-29T06:25:33.177Z,16.31
2022-07-29T06:30:34.596Z,16.57
2022-07-29T06:35:38.808Z,16.31
2022-07-29T06:41:06.756Z,16.43
2022-07-29T06:46:11.189Z,16.35
2022-07-29T06:51:12.792Z,16.52
2022-07-29T06:56:14.869Z,16.64
2022-07-29T07:01:17.021Z,16.76
2022-07-29T07:06:19.679Z,16.80
2022-07-29T07:11:21.400Z,16.74
2022-07-29T07:16:22.829Z,16.87
2022-07-29T07:21:24.406Z,16.93
2022-07-29T07:26:26.226Z,17.00
2022-07-29T07:31:27.864Z,16.99
2022-07-29T07:36:29.343Z,16.92
2022-07-29T07:41:32.526Z,17.00
2022-07-29T07:46:34.112Z,17.12
2022-07-29T07:51:35.500Z,17.17
2022-07-29T07:56:36.923Z,17.16
2022-07-29T08:01:49.985Z,17.21
2022-07-29T08:06:58.289Z,17.00
2022-07-29T08:12:00.197Z,17.32
2022-07-29T08:17:01.837Z,17.44
2022-07-29T08:22:03.360Z,17.35
2022-07-29T08:27:16.603Z,17.42
2022-07-29T08:32:51.239Z,17.36
2022-07-29T08:37:48.011Z,17.22
2022-07-29T08:42:50.754Z,17.10
2022-07-29T08:47:53.304Z,17.07
2022-07-29T08:52:59.609Z,17.08
2022-07-29T08:58:02.845Z,16.97
2022-07-29T09:03:05.933Z,16.95
2022-07-29T09:08:07.893Z,17.05
2022-07-29T09:13:09.471Z,17.37
2022-07-29T09:18:20.468Z,17.49
2022-07-29T09:23:32.276Z,17.59
2022-07-29T09:28:33.744Z,17.81
2022-07-29T09:33:36.592Z,17.93
2022-07-29T09:38:38.296Z,18.07
2022-07-29T09:43:41.434Z,18.21
2022-07-29T09:48:43.032Z,18.36
2022-07-29T09:53:44.464Z,18.44
2022-07-29T09:58:45.901Z,18.43
2022-07-29T10:03:54.139Z,18.29
2022-07-29T10:09:08.564Z,18.68
2022-07-29T10:14:10.063Z,18.80
2022-07-29T10:19:11.672Z,18.86
2022-07-29T10:24:14.613Z,19.04
2022-07-29T10:29:16.693Z,19.14
2022-07-29T10:34:37.836Z,19.14
2022-07-29T10:39:53.193Z,19.35
2022-07-29T10:44:55.450Z,19.25
2022-07-29T10:50:01.441Z,19.37
2022-07-29T10:55:05.670Z,19.45
2022-07-29T11:00:09.883Z,19.58
2022-07-29T11:05:14.501Z,19.63
2022-07-29T11:10:16.302Z,19.81
2022-07-29T11:15:22.162Z,20.00
2022-07-29T11:20:46.674Z,20.25
2022-07-29T11:26:26.759Z,20.44
2022-07-29T11:31:42.691Z,20.51
2022-07-29T11:37:14.918Z,20.58
2022-07-29T11:42:32.074Z,20.63
2022-07-29T11:47:39.574Z,20.80
2022-07-29T11:52:49.670Z,20.98
2022-07-29T11:58:03.901Z,21.03
2022-07-29T12:03:08.856Z,21.23
2022-07-29T12:08:14.634Z,21.16
2022-07-29T12:13:18.470Z,21.35
2022-07-29T12:18:24.053Z,21.44
2022-07-29T12:23:25.826Z,21.51
2022-07-29T12:28:31.984Z,21.80
2022-07-29T12:33:35.224Z,21.80
2022-07-29T12:38:36.926Z,21.76
2022-07-29T12:43:38.383Z,21.83
2022-07-29T12:48:43.102Z,21.60
2022-07-29T12:54:04.555Z,21.77
2022-07-29T12:59:19.594Z,21.67
2022-07-29T13:04:32.732Z,21.79
2022-07-29T13:09:46.648Z,21.86
2022-07-29T13:14:50.204Z,21.82
2022-07-29T13:19:54.208Z,21.88
2022-07-29T13:24:58.329Z,21.92
2022-07-29T13:30:01.896Z,21.97
2022-07-29T13:35:06.793Z,21.96
2022-07-29T13:40:09.431Z,22.05
2022-07-29T13:45:11.829Z,22.07
2022-07-29T13:50:13.232Z,22.14
2022-07-29T13:55:14.648Z,22.26
2022-07-29T14:00:17.131Z,22.29
2022-07-29T14:05:18.549Z,22.33
2022-07-29T14:10:20.388Z,22.60
2022-07-29T14:15:21.977Z,22.45
2022-07-29T14:20:23.565Z,22.53
2022-07-29T14:25:25.094Z,22.45
2022-07-29T14:30:26.524Z,22.30
2022-07-29T14:35:28.001Z,22.57
2022-07-29T14:40:29.428Z,22.53
2022-07-29T14:45:31.038Z,22.61
2022-07-29T14:50:32.505Z,22.39
2022-07-29T14:55:33.991Z,22.56
2022-07-29T15:00:37.667Z,22.41
2022-07-29T15:05:39.687Z,22.54
2022-07-29T15:10:41.163Z,22.55
2022-07-29T15:15:42.769Z,22.55
2022-07-29T15:20:46.891Z,22.44
2022-07-29T15:25:48.291Z,22.54
2022-07-29T15:30:49.702Z,22.59
2022-07-29T15:35:51.110Z,22.65
2022-07-29T15:40:52.536Z,22.70
2022-07-29T15:46:12.313Z,22.71
2022-07-29T15:51:14.295Z,22.77
2022-07-29T15:56:15.691Z,22.67
2022-07-29T16:01:17.711Z,22.79
2022-07-29T16:06:19.379Z,22.80
2022-07-29T16:11:20.953Z,22.89
2022-07-29T16:16:22.375Z,22.91
2022-07-29T16:21:23.882Z,22.92
2022-07-29T16:26:25.282Z,22.89
2022-07-29T16:31:27.345Z,22.91
2022-07-29T16:36:28.838Z,23.03
2022-07-29T16:41:30.215Z,23.11
2022-07-29T16:46:31.648Z,23.12
2022-07-29T16:51:33.080Z,23.12
2022-07-29T16:56:34.551Z,23.13
2022-07-29T17:01:36.080Z,23.19
2022-07-29T17:06:40.338Z,23.26
2022-07-29T17:11:52.349Z,23.12
2022-07-29T17:17:02.400Z,23.27
2022-07-29T17:22:13.020Z,23.24
2022-07-29T17:27:17.514Z,23.20
2022-07-29T17:32:18.958Z,23.32
2022-07-29T17:37:20.380Z,23.25
2022-07-29T17:42:21.794Z,23.20
2022-07-29T17:47:23.249Z,23.25
2022-07-29T17:52:24.665Z,23.12
2022-07-29T17:57:26.187Z,23.25
2022-07-29T18:02:28.274Z,23.20
2022-07-29T18:07:30.143Z,23.19
2022-07-29T18:12:31.570Z,23.12
2022-07-29T18:17:48.464Z,23.08
2022-07-29T18:22:54.453Z,23.10
2022-07-29T18:28:00.161Z,23.06
2022-07-29T18:38:23.359Z,22.98
2022-07-29T18:43:24.827Z,22.65
2022-07-29T18:48:26.277Z,22.92
2022-07-29T18:53:27.751Z,22.74
2022-07-29T18:58:29.209Z,22.86
2022-07-29T19:03:30.642Z,22.87
2022-07-29T19:08:32.081Z,22.80
2022-07-29T19:13:33.802Z,22.66
2022-07-29T19:18:35.196Z,22.51
2022-07-29T19:24:04.218Z,22.11
2022-07-29T19:28:58.174Z,22.35
2022-07-29T19:33:59.597Z,22.30
2022-07-29T19:39:01.298Z,22.13
2022-07-29T19:44:02.761Z,22.01
2022-07-29T19:49:06.507Z,21.85
2022-07-29T19:54:08.731Z,21.76
2022-07-29T19:59:10.918Z,21.52
2022-07-29T20:04:13.834Z,21.37
2022-07-29T20:09:16.852Z,21.35
2022-07-29T20:14:22.629Z,21.25
2022-07-29T20:19:24.105Z,20.99
2022-07-29T20:24:25.731Z,20.84
2022-07-29T20:29:27.155Z,20.98
2022-07-29T20:34:28.571Z,20.77
2022-07-29T20:39:30.336Z,20.66
2022-07-29T20:44:32.081Z,20.53
2022-07-29T20:49:33.550Z,20.35
2022-07-29T20:54:34.968Z,20.27
2022-07-29T20:59:36.586Z,20.13
2022-07-29T21:04:38.042Z,20.09
2022-07-29T21:09:39.434Z,20.25
2022-07-29T21:14:41.127Z,20.05
2022-07-29T21:19:42.962Z,19.85
2022-07-29T21:24:44.888Z,19.83
2022-07-29T21:29:46.322Z,19.69
2022-07-29T21:34:47.766Z,19.80
2022-07-29T21:39:49.823Z,19.65
2022-07-29T21:44:51.370Z,19.59
2022-07-29T21:49:52.907Z,19.38
2022-07-29T21:54:54.312Z,19.33
2022-07-29T21:59:58.465Z,19.36
2022-07-29T22:05:04.089Z,19.29
2022-07-29T22:10:06.083Z,19.27
2022-07-29T22:15:08.280Z,19.17
2022-07-29T22:20:10.207Z,19.03
2022-07-29T22:25:11.747Z,19.07
2022-07-29T22:30:13.504Z,19.05
2022-07-29T22:35:15.483Z,18.96
2022-07-29T22:40:16.934Z,18.84
2022-07-29T22:45:18.471Z,18.86
2022-07-29T22:50:19.919Z,18.71
2022-07-29T22:55:21.449Z,18.63
2022-07-29T23:00:22.889Z,18.80
2022-07-29T23:05:24.318Z,18.78
2022-07-29T23:10:25.849Z,18.68
2022-07-29T23:15:27.606Z,18.64
2022-07-29T23:20:29.050Z,18.50
2022-07-29T23:25:30.617Z,18.63
2022-07-29T23:30:32.512Z,18.49
2022-07-29T23:35:34.212Z,18.26
2022-07-29T23:40:35.768Z,18.32
2022-07-29T23:45:42.478Z,18.21
2022-07-29T23:50:45.874Z,18.03
2022-07-29T23:55:47.300Z,18.13
